Time;durP1;ratioP1;P1;durP2;ratioP2;P2;SDS_P1;SDS_P2;PMS_P1;PMS_P2;Temp;Humidity;BMP_temperature;BMP_pressure;BME280_temperature;BME280_humidity;BME280_pressure;Samples;Min_cycle;Max_cycle;Signal;HPM_P1;HPM_P2
2022/07/03 00:01:38;;;;;;;2.83;2.63;;;;;;;;;;5066431;28;20246;-51
2022/07/03 00:04:04;;;;;;;2.90;2.67;;;;;;;;;;5073508;28;20241;-51
2022/07/03 00:06:32;;;;;;;3.20;2.92;;;;;;;;;;5078407;28;20253;-53
2022/07/03 00:08:58;;;;;;;3.88;3.28;;;;;;;;;;5075842;28;20772;-53
2022/07/03 00:11:27;;;;;;;6.82;3.70;;;;;;;;;;5051425;28;20234;-53
2022/07/03 00:13:53;;;;;;;5.68;3.42;;;;;;;;;;5061661;28;20232;-52
2022/07/03 00:16:19;;;;;;;5.07;3.22;;;;;;;;;;5050871;28;20238;-51
2022/07/03 00:18:46;;;;;;;4.00;3.58;;;;;;;;;;5063652;28;20733;-51
2022/07/03 00:21:13;;;;;;;3.10;2.90;;;;;;;;;;5054153;28;20239;-53
2022/07/03 00:23:41;;;;;;;2.95;2.75;;;;;;;;;;5065625;28;20249;-51
2022/07/03 00:26:09;;;;;;;3.28;2.97;;;;;;;;;;5061323;28;20302;-52
2022/07/03 00:28:36;;;;;;;3.22;2.92;;;;;;;;;;5065877;28;20247;-52
2022/07/03 00:31:03;;;;;;;3.28;3.08;;;;;;;;;;5064902;28;20227;-52
2022/07/03 00:33:33;;;;;;;4.55;3.30;;;;;;;;;;5075229;28;20238;-53
2022/07/03 00:36:00;;;;;;;3.15;2.92;;;;;;;;;;5046953;28;20733;-53
2022/07/03 00:38:27;;;;;;;3.10;2.90;;;;;;;;;;5058476;28;20561;-51
2022/07/03 00:40:53;;;;;;;4.50;3.40;;;;;;;;;;5071038;28;20226;-51
2022/07/03 00:43:20;;;;;;;3.53;3.30;;;;;;;;;;5086524;28;20315;-52
2022/07/03 00:45:50;;;;;;;3.65;3.35;;;;;;;;;;5067558;28;20238;-52
2022/07/03 00:48:17;;;;;;;3.97;3.67;;;;;;;;;;5066180;28;20238;-52
2022/07/03 00:50:45;;;;;;;3.55;3.25;;;;;;;;;;5053001;28;20230;-51
2022/07/03 00:53:13;;;;;;;4.22;3.38;;;;;;;;;;5062117;28;20239;-52
2022/07/03 00:55:40;;;;;;;3.67;3.38;;;;;;;;;;5061426;28;20239;-52
2022/07/03 00:58:07;;;;;;;3.63;3.33;;;;;;;;;;5070089;28;20300;-51
2022/07/03 01:00:35;;;;;;;3.97;3.55;;;;;;;;;;5072726;28;20228;-52
2022/07/03 01:03:06;;;;;;;3.95;3.13;;;;;;;;;;5073698;28;20239;-52
2022/07/03 01:05:33;;;;;;;7.82;3.97;;;;;;;;;;5063135;28;20235;-52
2022/07/03 01:08:04;;;;;;;3.65;3.35;;;;;;;;;;5065600;28;20235;-52
2022/07/03 01:10:37;;;;;;;3.50;3.25;;;;;;;;;;5062519;28;20250;-52
2022/07/03 01:13:07;;;;;;;4.18;3.40;;;;;;;;;;5065201;28;20549;-52
2022/07/03 01:15:37;;;;;;;3.60;3.40;;;;;;;;;;5065280;28;20227;-52
2022/07/03 01:18:24;;;;;;;5.03;3.45;;;;;;;;;;5065763;28;20257;-53
2022/07/03 01:20:53;;;;;;;3.38;3.17;;;;;;;;;;5055499;28;20233;-51
2022/07/03 01:23:22;;;;;;;6.32;3.85;;;;;;;;;;5062009;28;20801;-51
2022/07/03 01:25:51;;;;;;;3.60;3.30;;;;;;;;;;5065399;28;20249;-52
2022/07/03 01:28:21;;;;;;;5.03;3.42;;;;;;;;;;5064715;28;20227;-53
2022/07/03 01:30:48;;;;;;;3.88;3.58;;;;;;;;;;5053660;28;20247;-52
2022/07/03 01:33:17;;;;;;;5.10;3.90;;;;;;;;;;5065707;28;20239;-52
2022/07/03 01:35:47;;;;;;;3.83;3.40;;;;;;;;;;5062253;28;20235;-52
2022/07/03 01:38:14;;;;;;;4.05;3.70;;;;;;;;;;5063936;28;20234;-52
2022/07/03 01:40:41;;;;;;;3.55;3.22;;;;;;;;;;5057644;28;20226;-52
2022/07/03 01:43:10;;;;;;;3.60;3.30;;;;;;;;;;5085504;28;20239;-52
2022/07/03 01:45:38;;;;;;;3.60;3.40;;;;;;;;;;5065400;28;20235;-52
2022/07/03 01:48:05;;;;;;;4.07;3.70;;;;;;;;;;5049119;28;20227;-52
2022/07/03 01:50:34;;;;;;;3.90;3.60;;;;;;;;;;5058750;28;20235;-52
2022/07/03 01:53:02;;;;;;;4.22;3.83;;;;;;;;;;5069216;28;20790;-52
2022/07/03 01:55:30;;;;;;;4.10;3.80;;;;;;;;;;5058845;28;20265;-56
2022/07/03 01:57:56;;;;;;;3.80;3.50;;;;;;;;;;5073559;28;20240;-52
2022/07/03 02:00:24;;;;;;;4.72;3.45;;;;;;;;;;5062588;28;20612;-51
2022/07/03 02:02:54;;;;;;;4.15;3.75;;;;;;;;;;5064275;28;20243;-51
2022/07/03 02:05:24;;;;;;;4.15;3.85;;;;;;;;;;5063045;28;20297;-52
2022/07/03 02:07:53;;;;;;;3.83;3.53;;;;;;;;;;5049643;28;20706;-51
2022/07/03 02:10:23;;;;;;;4.38;3.90;;;;;;;;;;5059625;28;20228;-53
2022/07/03 02:12:51;;;;;;;4.25;3.85;;;;;;;;;;5053017;28;20238;-52
2022/07/03 02:15:18;;;;;;;3.97;3.67;;;;;;;;;;5064441;28;20235;-51
2022/07/03 02:17:47;;;;;;;5.82;3.90;;;;;;;;;;5059942;28;20255;-51
2022/07/03 02:20:15;;;;;;;4.57;4.13;;;;;;;;;;5064751;28;20228;-52
2022/07/03 02:22:42;;;;;;;5.22;4.15;;;;;;;;;;5073426;28;20860;-52
2022/07/03 02:25:14;;;;;;;4.00;3.60;;;;;;;;;;5068365;28;20259;-51
2022/07/03 02:27:43;;;;;;;5.82;3.58;;;;;;;;;;5069079;28;20250;-52
2022/07/03 02:30:11;;;;;;;5.03;4.53;;;;;;;;;;5063710;28;20232;-53
2022/07/03 02:32:39;;;;;;;4.38;3.97;;;;;;;;;;5048907;28;20232;-51
2022/07/03 02:35:08;;;;;;;4.32;3.92;;;;;;;;;;5064216;28;20297;-51
2022/07/03 02:37:38;;;;;;;4.93;3.83;;;;;;;;;;5048631;28;20234;-51
2022/07/03 02:40:07;;;;;;;3.55;3.25;;;;;;;;;;5067123;28;20234;-52
2022/07/03 02:42:38;;;;;;;4.53;4.22;;;;;;;;;;5083162;28;20230;-52
2022/07/03 02:45:06;;;;;;;4.07;3.78;;;;;;;;;;5066953;28;20242;-54
2022/07/03 02:47:36;;;;;;;3.80;3.50;;;;;;;;;;5058949;28;20705;-51
2022/07/03 02:50:08;;;;;;;4.20;3.80;;;;;;;;;;5072777;28;20439;-53
2022/07/03 02:52:47;;;;;;;4.47;4.18;;;;;;;;;;5073293;28;20234;-52
2022/07/03 02:55:21;;;;;;;4.45;4.05;;;;;;;;;;5072510;28;20237;-53
2022/07/03 02:57:49;;;;;;;5.95;3.83;;;;;;;;;;5047970;28;20236;-52
2022/07/03 03:00:15;;;;;;;4.10;3.80;;;;;;;;;;5064468;28;20231;-51
2022/07/03 03:02:52;;;;;;;4.43;4.13;;;;;;;;;;5048355;28;20607;-51
2022/07/03 03:05:22;;;;;;;4.72;4.32;;;;;;;;;;5067444;28;20274;-51
2022/07/03 03:07:53;;;;;;;4.28;3.90;;;;;;;;;;5057377;28;20249;-52
2022/07/03 03:10:19;;;;;;;4.50;4.10;;;;;;;;;;5058652;28;20674;-52
2022/07/03 03:12:47;;;;;;;4.15;3.85;;;;;;;;;;5066778;28;20239;-51
2022/07/03 03:15:13;;;;;;;8.25;4.22;;;;;;;;;;5066467;28;20614;-52
2022/07/03 03:17:42;;;;;;;4.05;3.70;;;;;;;;;;5049281;28;20239;-51
2022/07/03 03:20:09;;;;;;;4.05;3.75;;;;;;;;;;5066739;28;20224;-52
2022/07/03 03:22:40;;;;;;;4.60;4.30;;;;;;;;;;5049416;28;20247;-52
2022/07/03 03:25:07;;;;;;;4.78;4.38;;;;;;;;;;5057816;28;20241;-51
2022/07/03 03:27:34;;;;;;;4.53;4.18;;;;;;;;;;5049404;28;20231;-52
2022/07/03 03:30:00;;;;;;;4.35;4.05;;;;;;;;;;5065255;28;20314;-53
2022/07/03 03:32:27;;;;;;;6.40;4.25;;;;;;;;;;5058423;28;20231;-52
2022/07/03 03:34:53;;;;;;;4.40;4.03;;;;;;;;;;5067409;28;20246;-52
2022/07/03 03:37:19;;;;;;;4.40;4.00;;;;;;;;;;5060344;28;20268;-51
2022/07/03 03:39:47;;;;;;;5.18;4.20;;;;;;;;;;5066753;28;20231;-52
2022/07/03 03:42:14;;;;;;;4.50;4.10;;;;;;;;;;5058370;28;20236;-51
2022/07/03 03:44:40;;;;;;;4.93;4.07;;;;;;;;;;5056649;28;20243;-53
2022/07/03 03:47:06;;;;;;;4.40;4.10;;;;;;;;;;5063060;28;20230;-51
2022/07/03 03:49:33;;;;;;;4.85;4.30;;;;;;;;;;5078261;28;20231;-51
2022/07/03 03:51:59;;;;;;;6.00;5.40;;;;;;;;;;5055112;28;20227;-52
2022/07/03 03:54:26;;;;;;;4.22;3.90;;;;;;;;;;5065877;28;20243;-52
2022/07/03 03:56:53;;;;;;;4.55;4.15;;;;;;;;;;5064862;28;20850;-52
2022/07/03 03:59:20;;;;;;;4.53;4.22;;;;;;;;;;5064560;28;20242;-51
2022/07/03 04:01:47;;;;;;;4.53;4.13;;;;;;;;;;5057971;28;20228;-52
2022/07/03 04:04:17;;;;;;;5.07;4.57;;;;;;;;;;5045169;28;20274;-52
2022/07/03 04:06:43;;;;;;;4.38;4.05;;;;;;;;;;5058590;28;20235;-52
2022/07/03 04:09:09;;;;;;;3.72;3.53;;;;;;;;;;5050017;28;20233;-53
2022/07/03 04:11:36;;;;;;;4.60;4.20;;;;;;;;;;5060847;28;20232;-50
2022/07/03 04:14:03;;;;;;;4.85;4.45;;;;;;;;;;5058536;28;20246;-51
2022/07/03 04:16:30;;;;;;;5.43;4.85;;;;;;;;;;5061361;28;20232;-52
2022/07/03 04:18:56;;;;;;;5.10;4.70;;;;;;;;;;5062609;28;20858;-51
2022/07/03 04:21:22;;;;;;;4.85;4.43;;;;;;;;;;5056053;28;20231;-53
2022/07/03 04:23:49;;;;;;;4.43;4.13;;;;;;;;;;5064520;28;20238;-52
2022/07/03 04:26:15;;;;;;;4.38;3.97;;;;;;;;;;5063261;28;20258;-51
2022/07/03 04:28:41;;;;;;;4.47;4.07;;;;;;;;;;5045370;28;20614;-52
2022/07/03 04:31:09;;;;;;;4.50;4.15;;;;;;;;;;5051098;28;20230;-51
2022/07/03 04:33:35;;;;;;;5.85;4.25;;;;;;;;;;5063328;28;20243;-51
2022/07/03 04:36:02;;;;;;;6.68;4.93;;;;;;;;;;5064491;28;20685;-51
2022/07/03 04:38:28;;;;;;;5.88;4.45;;;;;;;;;;5046795;28;20230;-52
2022/07/03 04:40:54;;;;;;;4.80;4.40;;;;;;;;;;5054548;28;20230;-53
2022/07/03 04:43:21;;;;;;;4.72;4.20;;;;;;;;;;5063843;28;20246;-52
2022/07/03 04:45:47;;;;;;;4.88;4.07;;;;;;;;;;5063843;28;20235;-53
2022/07/03 04:48:15;;;;;;;4.20;3.90;;;;;;;;;;5082858;28;20708;-53
2022/07/03 04:50:41;;;;;;;4.65;4.18;;;;;;;;;;5076462;28;20231;-52
2022/07/03 04:53:07;;;;;;;6.18;4.22;;;;;;;;;;5052002;28;20242;-52
2022/07/03 04:55:34;;;;;;;4.55;4.20;;;;;;;;;;5054288;28;20245;-51
2022/07/03 04:58:00;;;;;;;4.47;4.07;;;;;;;;;;5053473;28;20239;-52
2022/07/03 05:00:26;;;;;;;5.43;5.03;;;;;;;;;;5060774;28;20603;-51
2022/07/03 05:02:53;;;;;;;4.80;4.38;;;;;;;;;;5055050;28;20235;-51
2022/07/03 05:05:21;;;;;;;5.40;4.20;;;;;;;;;;5064371;28;20235;-52
2022/07/03 05:07:47;;;;;;;4.53;4.13;;;;;;;;;;5062016;28;20240;-51
2022/07/03 05:10:13;;;;;;;4.85;3.75;;;;;;;;;;5065045;28;20242;-52
2022/07/03 05:12:40;;;;;;;6.18;4.07;;;;;;;;;;5053308;28;20238;-52
2022/07/03 05:15:07;;;;;;;4.43;4.13;;;;;;;;;;5064795;28;20241;-53
2022/07/03 05:17:34;;;;;;;5.03;4.63;;;;;;;;;;5071251;28;20243;-51
2022/07/03 05:22:43;;;;;;;4.38;3.97;;;;;;;;;;5056824;28;20224;-51
2022/07/03 05:25:09;;;;;;;5.45;3.97;;;;;;;;;;5053722;28;20591;-52
2022/07/03 05:27:36;;;;;;;4.47;4.07;;;;;;;;;;5058678;28;20239;-53
2022/07/03 05:30:02;;;;;;;4.57;4.18;;;;;;;;;;5060113;28;20227;-53
2022/07/03 05:32:29;;;;;;;4.97;4.30;;;;;;;;;;5062950;28;20232;-52
2022/07/03 05:34:55;;;;;;;4.30;3.90;;;;;;;;;;5065208;28;20258;-52
2022/07/03 05:37:21;;;;;;;4.00;3.70;;;;;;;;;;5060406;28;20258;-51
2022/07/03 05:39:49;;;;;;;4.82;4.30;;;;;;;;;;5062957;28;20230;-52
2022/07/03 05:42:15;;;;;;;4.13;3.83;;;;;;;;;;5072197;28;20222;-51
2022/07/03 05:44:42;;;;;;;4.53;4.03;;;;;;;;;;5082602;28;20245;-53
2022/07/03 05:47:08;;;;;;;6.43;4.22;;;;;;;;;;5086627;28;20226;-50
2022/07/03 05:49:34;;;;;;;4.75;3.55;;;;;;;;;;5061689;28;20258;-52
2022/07/03 05:52:01;;;;;;;3.72;3.30;;;;;;;;;;5064808;28;20278;-51
2022/07/03 05:54:27;;;;;;;3.55;3.22;;;;;;;;;;5078860;28;20226;-52
2022/07/03 05:56:55;;;;;;;3.47;3.17;;;;;;;;;;5072271;28;20304;-52
2022/07/03 05:59:21;;;;;;;3.47;3.03;;;;;;;;;;5049515;28;20724;-53
2022/07/03 06:01:48;;;;;;;3.15;2.95;;;;;;;;;;5068100;28;20241;-52
2022/07/03 06:04:17;;;;;;;3.13;2.78;;;;;;;;;;5051878;28;20267;-52
2022/07/03 06:06:43;;;;;;;3.70;3.13;;;;;;;;;;5064253;28;20223;-51
2022/07/03 06:09:09;;;;;;;3.03;2.83;;;;;;;;;;5065593;28;20227;-51
2022/07/03 06:11:36;;;;;;;3.28;3.08;;;;;;;;;;5069239;28;20242;-51
2022/07/03 06:14:03;;;;;;;4.97;3.20;;;;;;;;;;5063662;28;20243;-51
2022/07/03 06:16:30;;;;;;;3.58;3.25;;;;;;;;;;5069915;28;20227;-51
2022/07/03 06:18:56;;;;;;;3.25;3.05;;;;;;;;;;5055776;28;20698;-51
2022/07/03 06:21:22;;;;;;;3.03;2.83;;;;;;;;;;5061376;28;20746;-52
2022/07/03 06:23:49;;;;;;;3.70;3.40;;;;;;;;;;5065923;28;20236;-52
2022/07/03 06:26:15;;;;;;;3.30;3.00;;;;;;;;;;5059807;28;20233;-51
2022/07/03 06:28:41;;;;;;;4.32;3.13;;;;;;;;;;5061471;28;20239;-53
2022/07/03 06:31:09;;;;;;;3.20;3.00;;;;;;;;;;5069281;28;20233;-53
2022/07/03 06:33:35;;;;;;;3.78;3.30;;;;;;;;;;5071725;28;20246;-52
2022/07/03 06:36:02;;;;;;;3.30;2.85;;;;;;;;;;5069146;28;20250;-52
2022/07/03 06:38:28;;;;;;;2.97;2.78;;;;;;;;;;5069360;28;20311;-52
2022/07/03 06:40:54;;;;;;;3.00;2.80;;;;;;;;;;5080292;28;20816;-53
2022/07/03 06:43:21;;;;;;;3.90;2.90;;;;;;;;;;5062637;28;20243;-53
2022/07/03 06:45:50;;;;;;;4.00;3.63;;;;;;;;;;5049060;28;20270;-51
2022/07/03 06:48:17;;;;;;;2.80;2.60;;;;;;;;;;5062574;28;20223;-53
2022/07/03 06:50:44;;;;;;;3.20;3.00;;;;;;;;;;5068860;28;20235;-52
2022/07/03 06:53:10;;;;;;;2.65;2.45;;;;;;;;;;5061474;28;20228;-53
2022/07/03 06:55:37;;;;;;;3.00;2.78;;;;;;;;;;5058768;28;20243;-51
2022/07/03 06:58:03;;;;;;;3.30;3.00;;;;;;;;;;5068296;28;20231;-53
2022/07/03 07:00:30;;;;;;;3.33;3.03;;;;;;;;;;5069349;28;20235;-53
2022/07/03 07:02:56;;;;;;;3.10;2.78;;;;;;;;;;5068032;28;20250;-52
2022/07/03 07:05:24;;;;;;;3.50;3.13;;;;;;;;;;5069042;28;20713;-52
2022/07/03 07:07:50;;;;;;;4.03;2.72;;;;;;;;;;5080944;28;20234;-51
2022/07/03 07:10:16;;;;;;;2.55;2.35;;;;;;;;;;5048606;28;20593;-53
2022/07/03 07:12:43;;;;;;;3.33;3.05;;;;;;;;;;5066830;28;20234;-53
2022/07/03 07:15:09;;;;;;;2.45;2.25;;;;;;;;;;5050941;28;20255;-53
2022/07/03 07:17:36;;;;;;;2.45;2.25;;;;;;;;;;5069744;28;20231;-52
2022/07/03 07:20:02;;;;;;;3.60;2.80;;;;;;;;;;5058935;28;20241;-55
2022/07/03 07:22:30;;;;;;;3.20;2.90;;;;;;;;;;5059417;28;20238;-52
2022/07/03 07:24:56;;;;;;;2.85;2.63;;;;;;;;;;5063177;28;20235;-52
2022/07/03 07:27:23;;;;;;;3.80;2.85;;;;;;;;;;5069702;28;20243;-51
2022/07/03 07:29:49;;;;;;;2.35;2.17;;;;;;;;;;5056902;28;20232;-51
2022/07/03 07:32:15;;;;;;;3.45;2.70;;;;;;;;;;5064463;28;20220;-52
2022/07/03 07:34:42;;;;;;;2.88;2.67;;;;;;;;;;5060902;28;20283;-52
2022/07/03 07:37:08;;;;;;;4.00;3.20;;;;;;;;;;5060906;28;20254;-53
2022/07/03 07:39:36;;;;;;;3.97;3.03;;;;;;;;;;5047611;28;20242;-52
2022/07/03 07:42:02;;;;;;;2.92;2.72;;;;;;;;;;5060274;28;20241;-52
2022/07/03 07:44:28;;;;;;;4.07;2.90;;;;;;;;;;5050086;28;20231;-51
2022/07/03 07:46:55;;;;;;;4.60;2.63;;;;;;;;;;5065205;28;20238;-52
2022/07/03 07:49:21;;;;;;;3.47;3.17;;;;;;;;;;5062837;28;20227;-53
2022/07/03 07:51:47;;;;;;;3.72;2.67;;;;;;;;;;5057041;28;20231;-52
2022/07/03 07:54:14;;;;;;;3.28;2.97;;;;;;;;;;5056833;28;20231;-52
2022/07/03 07:56:41;;;;;;;4.50;4.10;;;;;;;;;;5061689;28;20234;-52
2022/07/03 07:59:08;;;;;;;3.22;2.92;;;;;;;;;;5057124;28;20234;-51
2022/07/03 08:07:16;;;;;;;2.80;2.60;;;;;;;;;;5004960;28;20255;-51
2022/07/03 08:09:42;;;;;;;3.17;2.63;;;;;;;;;;5006686;28;20257;-52
2022/07/03 08:12:10;;;;;;;3.03;2.63;;;;;;;;;;5029300;28;20337;-52
2022/07/03 08:14:37;;;;;;;3.35;2.85;;;;;;;;;;5057714;28;20254;-52
2022/07/03 08:17:04;;;;;;;2.80;2.53;;;;;;;;;;5067574;28;20608;-53
2022/07/03 08:19:30;;;;;;;2.50;2.40;;;;;;;;;;5048165;28;20584;-53
2022/07/03 08:21:57;;;;;;;2.55;2.35;;;;;;;;;;5055907;28;20231;-52
2022/07/03 08:24:23;;;;;;;2.70;2.50;;;;;;;;;;5046495;28;20308;-53
2022/07/03 08:26:49;;;;;;;2.97;2.75;;;;;;;;;;5063378;28;20231;-53
2022/07/03 08:29:17;;;;;;;3.10;2.83;;;;;;;;;;5071843;28;20243;-51
2022/07/03 08:31:43;;;;;;;3.00;2.80;;;;;;;;;;5085894;28;20239;-52
2022/07/03 08:34:12;;;;;;;3.85;3.00;;;;;;;;;;5090980;28;20238;-53
2022/07/03 08:36:40;;;;;;;3.83;2.80;;;;;;;;;;5055046;28;20240;-53
2022/07/03 08:39:06;;;;;;;3.58;2.92;;;;;;;;;;5066394;28;20238;-53
2022/07/03 08:41:33;;;;;;;2.75;2.55;;;;;;;;;;5072336;28;20238;-53
2022/07/03 08:44:00;;;;;;;5.25;2.88;;;;;;;;;;5086268;28;20245;-52
2022/07/03 08:46:31;;;;;;;2.38;2.17;;;;;;;;;;5056736;28;20223;-52
2022/07/03 08:48:58;;;;;;;2.90;2.70;;;;;;;;;;5068634;28;20222;-51
2022/07/03 08:51:26;;;;;;;2.75;2.55;;;;;;;;;;5056918;28;20488;-53
2022/07/03 08:53:53;;;;;;;3.78;3.03;;;;;;;;;;5067392;28;20322;-53
2022/07/03 08:56:20;;;;;;;2.60;2.40;;;;;;;;;;5045665;28;20235;-52
2022/07/03 08:58:46;;;;;;;4.70;2.92;;;;;;;;;;5043175;28;20340;-52
2022/07/03 09:01:15;;;;;;;2.40;2.20;;;;;;;;;;5052169;28;20235;-53
2022/07/03 09:03:44;;;;;;;3.20;2.78;;;;;;;;;;5062754;28;20731;-52
2022/07/03 09:06:10;;;;;;;2.55;2.45;;;;;;;;;;5056613;28;20232;-52
2022/07/03 09:08:44;;;;;;;2.72;2.53;;;;;;;;;;5057482;28;20777;-52
2022/07/03 09:11:11;;;;;;;2.90;2.53;;;;;;;;;;5049208;28;20230;-52
2022/07/03 09:13:37;;;;;;;4.03;2.55;;;;;;;;;;5056207;28;20243;-51
2022/07/03 09:16:04;;;;;;;2.80;2.60;;;;;;;;;;5057516;28;20238;-52
2022/07/03 09:18:37;;;;;;;2.53;2.40;;;;;;;;;;5055194;28;20782;-52
2022/07/03 09:21:05;;;;;;;2.30;2.20;;;;;;;;;;5059352;28;20346;-52
2022/07/03 09:23:36;;;;;;;3.60;2.50;;;;;;;;;;5057266;28;20239;-52
2022/07/03 09:26:03;;;;;;;3.10;2.50;;;;;;;;;;5050488;28;20230;-51
2022/07/03 09:28:43;;;;;;;2.03;1.85;;;;;;;;;;5053046;28;20309;-51
2022/07/03 09:31:10;;;;;;;2.42;2.22;;;;;;;;;;5049097;28;20590;-52
2022/07/03 09:33:48;;;;;;;2.78;2.58;;;;;;;;;;5056027;28;20246;-52
2022/07/03 09:36:16;;;;;;;2.70;2.38;;;;;;;;;;5050614;28;20231;-52
2022/07/03 09:38:44;;;;;;;6.15;2.38;;;;;;;;;;5041861;28;20239;-54
2022/07/03 09:41:10;;;;;;;5.55;2.38;;;;;;;;;;5051445;28;20629;-53
2022/07/03 09:43:41;;;;;;;2.35;2.20;;;;;;;;;;5046400;28;20247;-52
2022/07/03 09:46:07;;;;;;;2.42;2.22;;;;;;;;;;5060875;28;20239;-52
2022/07/03 09:48:34;;;;;;;2.45;2.25;;;;;;;;;;5054014;28;20245;-52
2022/07/03 09:51:11;;;;;;;2.30;2.20;;;;;;;;;;5058052;28;20383;-52
2022/07/03 09:53:46;;;;;;;2.38;2.28;;;;;;;;;;5054321;28;20247;-52
2022/07/03 09:56:12;;;;;;;2.35;2.25;;;;;;;;;;5048668;28;20317;-52
2022/07/03 09:58:39;;;;;;;3.28;2.38;;;;;;;;;;5046866;28;20744;-53
2022/07/03 10:01:16;;;;;;;3.22;2.63;;;;;;;;;;5052161;28;20238;-51
2022/07/03 10:03:42;;;;;;;2.63;2.30;;;;;;;;;;5048871;28;20239;-52
2022/07/03 10:06:08;;;;;;;2.10;2.00;;;;;;;;;;5052100;28;20314;-52
2022/07/03 10:08:35;;;;;;;2.25;2.15;;;;;;;;;;5049193;28;20240;-52
2022/07/03 10:11:03;;;;;;;3.13;2.60;;;;;;;;;;5062602;28;20235;-51
2022/07/03 10:13:29;;;;;;;2.60;2.40;;;;;;;;;;5057702;28;20695;-50
2022/07/03 10:15:56;;;;;;;2.53;2.33;;;;;;;;;;5048817;28;20247;-51
2022/07/03 10:18:23;;;;;;;2.78;2.58;;;;;;;;;;5051902;28;20969;-50
2022/07/03 10:20:50;;;;;;;7.82;2.33;;;;;;;;;;5059861;28;20290;-53
2022/07/03 10:23:17;;;;;;;3.58;2.20;;;;;;;;;;5064743;28;20284;-51
2022/07/03 10:25:45;;;;;;;3.85;2.15;;;;;;;;;;5053084;28;20246;-52
2022/07/03 10:28:13;;;;;;;3.08;2.08;;;;;;;;;;5060227;28;20649;-52
2022/07/03 10:30:39;;;;;;;2.72;2.63;;;;;;;;;;5056861;28;20236;-52
2022/07/03 10:33:06;;;;;;;2.33;1.92;;;;;;;;;;5055239;28;20708;-51
2022/07/03 10:35:34;;;;;;;2.38;2.28;;;;;;;;;;5062682;28;20265;-53
2022/07/03 10:38:13;;;;;;;2.28;2.08;;;;;;;;;;5052909;28;20232;-52
2022/07/03 10:46:13;;;;;;;2.45;2.15;;;;;;;;;;5055946;28;20239;-52
2022/07/03 10:48:51;;;;;;;3.00;2.80;;;;;;;;;;5059435;28;20323;-52
2022/07/03 10:51:17;;;;;;;2.25;2.15;;;;;;;;;;5061530;28;20230;-52
2022/07/03 10:53:44;;;;;;;2.42;2.22;;;;;;;;;;5055556;28;20235;-51
2022/07/03 10:56:10;;;;;;;2.40;2.22;;;;;;;;;;5052462;28;20322;-52
2022/07/03 11:01:30;;;;;;;2.80;1.83;;;;;;;;;;5099851;27;20623;-53
2022/07/03 11:04:00;;;;;;;2.65;2.05;;;;;;;;;;5075848;27;20717;-51
2022/07/03 11:06:48;;;;;;;1.90;1.80;;;;;;;;;;5071356;27;20239;-51
2022/07/03 11:09:15;;;;;;;1.58;1.48;;;;;;;;;;5075569;27;20230;-51
2022/07/03 11:11:57;;;;;;;2.05;1.95;;;;;;;;;;5088975;27;20252;-51
2022/07/03 11:14:24;;;;;;;2.30;2.13;;;;;;;;;;5094730;27;20249;-52
2022/07/03 11:17:13;;;;;;;2.00;1.90;;;;;;;;;;5093596;27;20234;-53
2022/07/03 11:19:39;;;;;;;1.85;1.75;;;;;;;;;;5069003;28;20670;-52
2022/07/03 11:22:08;;;;;;;3.30;1.60;;;;;;;;;;5073069;28;20242;-52
2022/07/03 11:24:39;;;;;;;1.77;1.67;;;;;;;;;;5074953;28;20241;-52
2022/07/03 11:27:24;;;;;;;1.90;1.80;;;;;;;;;;5077488;28;20616;-52
2022/07/03 11:29:51;;;;;;;2.30;1.90;;;;;;;;;;5071952;28;20230;-52
2022/07/03 11:32:41;;;;;;;2.17;2.08;;;;;;;;;;5079349;27;20238;-52
2022/07/03 11:35:09;;;;;;;2.05;1.90;;;;;;;;;;5099348;27;20727;-53
2022/07/03 11:37:36;;;;;;;1.90;1.77;;;;;;;;;;5086633;27;20230;-52
2022/07/03 11:40:03;;;;;;;1.80;1.70;;;;;;;;;;5100265;27;20241;-52
2022/07/03 11:42:33;;;;;;;1.98;1.88;;;;;;;;;;5085618;27;21608;-52
2022/07/03 11:45:00;;;;;;;1.70;1.60;;;;;;;;;;5092623;27;20231;-51
2022/07/03 11:47:27;;;;;;;2.67;1.85;;;;;;;;;;5087566;27;20254;-50
2022/07/03 11:49:53;;;;;;;2.55;2.17;;;;;;;;;;5071536;28;20245;-51
2022/07/03 11:52:33;;;;;;;2.83;2.10;;;;;;;;;;5076066;28;20248;-52
2022/07/03 11:55:00;;;;;;;1.80;1.70;;;;;;;;;;5094460;27;20278;-52
2022/07/03 11:57:26;;;;;;;2.28;2.17;;;;;;;;;;5079535;28;20239;-50
2022/07/03 11:59:55;;;;;;;3.08;2.00;;;;;;;;;;5074363;28;20231;-51
2022/07/03 12:02:21;;;;;;;2.30;1.90;;;;;;;;;;5080032;28;20257;-52
2022/07/03 12:04:47;;;;;;;1.80;1.70;;;;;;;;;;5073813;28;20230;-53
2022/07/03 12:07:15;;;;;;;1.77;1.67;;;;;;;;;;5081173;27;20226;-51
2022/07/03 12:09:43;;;;;;;1.80;1.70;;;;;;;;;;5077981;28;20238;-52
2022/07/03 12:12:10;;;;;;;1.67;1.52;;;;;;;;;;5069819;28;20231;-51
2022/07/03 12:14:40;;;;;;;2.03;1.77;;;;;;;;;;5062657;28;20325;-52
2022/07/03 12:17:07;;;;;;;2.22;1.92;;;;;;;;;;5068987;28;20246;-51
2022/07/03 12:19:33;;;;;;;2.38;1.55;;;;;;;;;;5063778;28;20246;-54
2022/07/03 12:22:01;;;;;;;1.60;1.50;;;;;;;;;;5070710;28;20595;-51
2022/07/03 12:24:27;;;;;;;2.20;1.60;;;;;;;;;;5061365;28;20243;-51
2022/07/03 12:26:55;;;;;;;1.48;1.38;;;;;;;;;;5056536;28;20404;-51
2022/07/03 12:29:21;;;;;;;1.38;1.35;;;;;;;;;;5065873;28;20234;-52
2022/07/03 12:31:48;;;;;;;1.55;1.48;;;;;;;;;;5065919;28;20234;-50
2022/07/03 12:34:16;;;;;;;1.38;1.27;;;;;;;;;;5063760;28;20231;-51
2022/07/03 12:36:56;;;;;;;2.90;1.42;;;;;;;;;;5058664;28;20254;-51
2022/07/03 12:39:23;;;;;;;1.35;1.10;;;;;;;;;;5063006;28;20238;-52
2022/07/03 12:41:50;;;;;;;1.63;1.52;;;;;;;;;;5056172;28;20307;-51
2022/07/03 12:44:20;;;;;;;1.50;1.33;;;;;;;;;;5060996;28;20234;-52
2022/07/03 12:46:47;;;;;;;1.70;1.60;;;;;;;;;;5059933;28;20731;-52
2022/07/03 12:49:14;;;;;;;1.25;1.25;;;;;;;;;;5064086;28;20234;-51
2022/07/03 12:51:41;;;;;;;1.48;1.33;;;;;;;;;;5068122;28;20241;-52
2022/07/03 12:54:08;;;;;;;1.35;1.25;;;;;;;;;;5079337;28;20233;-52
2022/07/03 12:56:34;;;;;;;2.45;1.80;;;;;;;;;;5070167;28;20329;-52
2022/07/03 12:59:18;;;;;;;2.10;1.60;;;;;;;;;;5070844;28;20230;-51
2022/07/03 13:01:46;;;;;;;1.40;1.30;;;;;;;;;;5067703;28;20241;-51
2022/07/03 13:04:14;;;;;;;2.10;1.83;;;;;;;;;;5061545;28;20641;-51
2022/07/03 13:06:41;;;;;;;1.20;1.20;;;;;;;;;;5064991;28;20767;-52
2022/07/03 13:09:07;;;;;;;1.88;1.50;;;;;;;;;;5059939;28;20284;-51
2022/07/03 13:11:34;;;;;;;1.73;1.63;;;;;;;;;;5058696;28;20309;-52
2022/07/03 13:14:04;;;;;;;1.77;1.67;;;;;;;;;;5062321;28;20266;-52
2022/07/03 13:16:36;;;;;;;1.70;1.60;;;;;;;;;;5064354;28;20692;-52
2022/07/03 13:19:05;;;;;;;1.63;1.52;;;;;;;;;;5061354;28;20243;-52
2022/07/03 13:21:31;;;;;;;2.53;1.80;;;;;;;;;;5070052;28;20614;-52
2022/07/03 13:23:58;;;;;;;2.17;1.60;;;;;;;;;;5070994;28;20249;-51
2022/07/03 13:26:24;;;;;;;2.17;1.98;;;;;;;;;;5063864;28;20281;-51
2022/07/03 13:28:50;;;;;;;1.80;1.70;;;;;;;;;;5078267;28;20835;-50
2022/07/03 13:31:17;;;;;;;2.15;1.95;;;;;;;;;;5063930;28;20538;-52
2022/07/03 13:33:43;;;;;;;1.80;1.70;;;;;;;;;;5053789;28;20619;-53
2022/07/03 13:36:11;;;;;;;3.08;2.78;;;;;;;;;;5061121;28;20234;-53
2022/07/03 13:38:37;;;;;;;5.72;2.60;;;;;;;;;;5067414;27;20231;-52
2022/07/03 13:41:03;;;;;;;2.92;1.85;;;;;;;;;;5059089;28;20241;-51
2022/07/03 13:43:30;;;;;;;1.70;1.60;;;;;;;;;;5064759;28;20243;-53
2022/07/03 13:45:56;;;;;;;2.38;2.17;;;;;;;;;;5061409;28;20785;-51
2022/07/03 13:48:23;;;;;;;1.58;1.48;;;;;;;;;;5059679;28;20231;-52
2022/07/03 13:50:49;;;;;;;1.60;1.50;;;;;;;;;;5065070;28;20243;-51
2022/07/03 13:53:17;;;;;;;2.85;1.60;;;;;;;;;;5060421;28;20231;-52
2022/07/03 13:55:43;;;;;;;2.22;2.13;;;;;;;;;;5073513;28;20243;-52
2022/07/03 13:58:09;;;;;;;1.83;1.73;;;;;;;;;;5075546;28;20235;-49
2022/07/03 14:00:36;;;;;;;2.83;2.05;;;;;;;;;;5065343;28;20249;-51
2022/07/03 14:03:03;;;;;;;5.13;4.18;;;;;;;;;;5066828;28;20235;-51
2022/07/03 14:05:29;;;;;;;1.80;1.70;;;;;;;;;;5059267;28;20242;-51
2022/07/03 14:07:56;;;;;;;1.58;1.50;;;;;;;;;;5058527;28;20338;-51
2022/07/03 14:10:25;;;;;;;2.05;1.90;;;;;;;;;;5071031;28;20222;-51
2022/07/03 14:12:52;;;;;;;1.90;1.80;;;;;;;;;;5070429;28;20223;-52
2022/07/03 14:15:18;;;;;;;2.67;2.50;;;;;;;;;;5067101;28;20266;-51
2022/07/03 14:17:45;;;;;;;1.88;1.77;;;;;;;;;;5077524;28;20231;-52
2022/07/03 14:20:12;;;;;;;2.33;1.70;;;;;;;;;;5061820;28;20242;-51
2022/07/03 14:22:38;;;;;;;2.05;1.95;;;;;;;;;;5063765;28;20231;-50
2022/07/03 14:25:05;;;;;;;1.55;1.45;;;;;;;;;;5068334;28;20246;-52
2022/07/03 14:33:00;;;;;;;2.42;1.73;;;;;;;;;;5055543;28;20226;-52
2022/07/03 14:35:27;;;;;;;1.83;1.73;;;;;;;;;;5070335;28;20710;-52
2022/07/03 14:37:53;;;;;;;2.00;1.90;;;;;;;;;;5065763;28;20732;-52
2022/07/03 14:40:19;;;;;;;5.18;1.55;;;;;;;;;;5064052;27;20293;-52
2022/07/03 14:42:47;;;;;;;1.75;1.65;;;;;;;;;;5074429;28;20266;-52
2022/07/03 14:45:13;;;;;;;1.88;1.77;;;;;;;;;;5067441;28;20231;-52
2022/07/03 14:47:39;;;;;;;2.00;1.90;;;;;;;;;;5072706;28;20234;-51
2022/07/03 14:50:07;;;;;;;5.25;2.20;;;;;;;;;;5056417;28;20631;-51
2022/07/03 14:52:34;;;;;;;1.77;1.67;;;;;;;;;;5070170;28;20234;-52
2022/07/03 14:55:00;;;;;;;1.65;1.55;;;;;;;;;;5064264;28;20243;-51
2022/07/03 14:57:34;;;;;;;2.22;1.90;;;;;;;;;;5082889;28;20237;-53
2022/07/03 15:00:04;;;;;;;1.67;1.58;;;;;;;;;;5079141;28;20220;-52
2022/07/03 15:02:33;;;;;;;1.48;1.40;;;;;;;;;;5062362;28;20684;-51
2022/07/03 15:05:06;;;;;;;1.90;1.73;;;;;;;;;;5055933;28;20732;-51
2022/07/03 15:07:35;;;;;;;1.60;1.50;;;;;;;;;;5063541;28;20234;-52
2022/07/03 15:10:03;;;;;;;2.05;1.95;;;;;;;;;;5058161;28;20227;-52